TAM4668 SBGR-SBJV
Flight info
| Callsign | TAM4668 |
|---|---|
| Flight time | 0h 46m |
| Altitude | 30000 |
| Route | SOVSI UZ85 RAXIT |
| Aircraft | A320/M-SDE3FGHIRWY/LB1 |
Departure
| Time | 2026-05-07 18:09 |
|---|---|
| Airport | São Paulo/Guarulhos–Governor André Franco Montoro International Airport (SBGR) |
Arrival
| Time | 2026-05-07 18:56 |
|---|---|
| Airport | Lauro Carneiro de Loyola Airport (SBJV) |
| Time | Latitude | Longitude | Altitude | Speed | Heading |
|---|---|---|---|---|---|
| 2026-05-07 17:57 | -23.42775 | -46.47760 | 2465 ft | 0 kts | 73° |
| 2026-05-07 18:00 | -23.42776 | -46.47765 | 2465 ft | 3 kts | 73° |
| 2026-05-07 18:00 | -23.42782 | -46.47785 | 2467 ft | 3 kts | 73° |
| 2026-05-07 18:00 | -23.42785 | -46.47798 | 2467 ft | 3 kts | 73° |
| 2026-05-07 18:00 | -23.42792 | -46.47825 | 2465 ft | 3 kts | 110° |
| 2026-05-07 18:01 | -23.42786 | -46.47836 | 2465 ft | 3 kts | 166° |
| 2026-05-07 18:01 | -23.42785 | -46.47836 | 2465 ft | 0 kts | 166° |
| 2026-05-07 18:02 | -23.42784 | -46.47836 | 2465 ft | 0 kts | 166° |
| 2026-05-07 18:03 | -23.42793 | -46.47834 | 2465 ft | 3 kts | 168° |
| 2026-05-07 18:04 | -23.42824 | -46.47828 | 2467 ft | 7 kts | 170° |
| 2026-05-07 18:04 | -23.42859 | -46.47834 | 2468 ft | 6 kts | 195° |
| 2026-05-07 18:04 | -23.42936 | -46.47829 | 2468 ft | 14 kts | 169° |
| 2026-05-07 18:04 | -23.43017 | -46.47814 | 2467 ft | 12 kts | 189° |
| 2026-05-07 18:05 | -23.43049 | -46.47886 | 2465 ft | 10 kts | 254° |
| 2026-05-07 18:05 | -23.43069 | -46.47963 | 2468 ft | 12 kts | 253° |
| 2026-05-07 18:05 | -23.43096 | -46.48059 | 2466 ft | 13 kts | 253° |
| 2026-05-07 18:05 | -23.43119 | -46.48145 | 2467 ft | 11 kts | 254° |
| 2026-05-07 18:06 | -23.43138 | -46.48214 | 2467 ft | 8 kts | 254° |
| 2026-05-07 18:06 | -23.43151 | -46.48266 | 2468 ft | 6 kts | 254° |
| 2026-05-07 18:06 | -23.43162 | -46.48307 | 2468 ft | 5 kts | 254° |
| 2026-05-07 18:06 | -23.43174 | -46.48351 | 2468 ft | 7 kts | 253° |
| 2026-05-07 18:07 | -23.43201 | -46.48386 | 2467 ft | 6 kts | 205° |
| 2026-05-07 18:07 | -23.43247 | -46.48382 | 2469 ft | 8 kts | 163° |
| 2026-05-07 18:07 | -23.43290 | -46.48367 | 2470 ft | 4 kts | 163° |
| 2026-05-07 18:07 | -23.43326 | -46.48355 | 2470 ft | 8 kts | 163° |
| 2026-05-07 18:08 | -23.43390 | -46.48336 | 2464 ft | 11 kts | 163° |
| 2026-05-07 18:08 | -23.43411 | -46.48270 | 2464 ft | 10 kts | 73° |
| 2026-05-07 18:08 | -23.43407 | -46.48254 | 2463 ft | 0 kts | 72° |
| 2026-05-07 18:08 | -23.43386 | -46.48182 | 2465 ft | 40 kts | 73° |
| 2026-05-07 18:09 | -23.43239 | -46.47635 | 2464 ft | 108 kts | 73° |
| 2026-05-07 18:09 | -23.42972 | -46.46649 | 2469 ft | 161 kts | 73° |
| 2026-05-07 18:09 | -23.42641 | -46.45365 | 2768 ft | 181 kts | 72° |
| 2026-05-07 18:09 | -23.42332 | -46.44044 | 3553 ft | 181 kts | 71° |
| 2026-05-07 18:10 | -23.41981 | -46.42755 | 4172 ft | 181 kts | 67° |
| 2026-05-07 18:10 | -23.41559 | -46.41397 | 4464 ft | 200 kts | 66° |
| 2026-05-07 18:10 | -23.41081 | -46.39885 | 4636 ft | 223 kts | 67° |
| 2026-05-07 18:10 | -23.40556 | -46.38191 | 4895 ft | 249 kts | 68° |
| 2026-05-07 18:11 | -23.40179 | -46.36271 | 5307 ft | 272 kts | 88° |
| 2026-05-07 18:11 | -23.40590 | -46.34206 | 6043 ft | 286 kts | 106° |
| 2026-05-07 18:11 | -23.41266 | -46.32152 | 6886 ft | 290 kts | 107° |
| 2026-05-07 18:11 | -23.41956 | -46.30067 | 7715 ft | 295 kts | 107° |
| 2026-05-07 18:12 | -23.42661 | -46.27962 | 8571 ft | 298 kts | 109° |
| 2026-05-07 18:12 | -23.43851 | -46.26087 | 9343 ft | 310 kts | 139° |
| 2026-05-07 18:12 | -23.45794 | -46.25066 | 10103 ft | 316 kts | 171° |
| 2026-05-07 18:12 | -23.48025 | -46.25073 | 10556 ft | 332 kts | 187° |
| 2026-05-07 18:13 | -23.50372 | -46.25483 | 10906 ft | 348 kts | 195° |
| 2026-05-07 18:13 | -23.52598 | -46.26538 | 11525 ft | 352 kts | 214° |
| 2026-05-07 18:13 | -23.54492 | -46.28240 | 12181 ft | 355 kts | 228° |
| 2026-05-07 18:13 | -23.55977 | -46.30386 | 12866 ft | 357 kts | 242° |
| 2026-05-07 18:14 | -23.56945 | -46.32876 | 13509 ft | 359 kts | 257° |
| 2026-05-07 18:14 | -23.57514 | -46.35539 | 14099 ft | 363 kts | 259° |
| 2026-05-07 18:14 | -23.58059 | -46.38240 | 14677 ft | 367 kts | 259° |
| 2026-05-07 18:14 | -23.58600 | -46.40971 | 15289 ft | 370 kts | 259° |
| 2026-05-07 18:15 | -23.59141 | -46.43718 | 15918 ft | 371 kts | 260° |
| 2026-05-07 18:15 | -23.59682 | -46.46477 | 16563 ft | 373 kts | 259° |
| 2026-05-07 18:15 | -23.60224 | -46.49246 | 17187 ft | 375 kts | 260° |
| 2026-05-07 18:15 | -23.60771 | -46.52037 | 17813 ft | 378 kts | 261° |
| 2026-05-07 18:16 | -23.61265 | -46.54856 | 18429 ft | 379 kts | 262° |
| 2026-05-07 18:16 | -23.61692 | -46.57659 | 18980 ft | 380 kts | 263° |
| 2026-05-07 18:16 | -23.62094 | -46.60510 | 19580 ft | 380 kts | 263° |
| 2026-05-07 18:16 | -23.62511 | -46.63348 | 20189 ft | 380 kts | 259° |
| 2026-05-07 18:17 | -23.63304 | -46.66104 | 20797 ft | 383 kts | 249° |
| 2026-05-07 18:17 | -23.64579 | -46.68659 | 21370 ft | 386 kts | 239° |
| 2026-05-07 18:17 | -23.66025 | -46.71129 | 21929 ft | 387 kts | 239° |
| 2026-05-07 18:17 | -23.67475 | -46.73609 | 22491 ft | 388 kts | 239° |
| 2026-05-07 18:18 | -23.68927 | -46.76101 | 23042 ft | 390 kts | 239° |
| 2026-05-07 18:18 | -23.70383 | -46.78606 | 23600 ft | 391 kts | 239° |
| 2026-05-07 18:18 | -23.71839 | -46.81110 | 24058 ft | 392 kts | 239° |
| 2026-05-07 18:18 | -23.73315 | -46.83627 | 24489 ft | 393 kts | 239° |
| 2026-05-07 18:19 | -23.74794 | -46.86135 | 24935 ft | 395 kts | 239° |
| 2026-05-07 18:19 | -23.76286 | -46.88658 | 25313 ft | 396 kts | 238° |
| 2026-05-07 18:19 | -23.77784 | -46.91191 | 25737 ft | 398 kts | 238° |
| 2026-05-07 18:19 | -23.79287 | -46.93737 | 26157 ft | 399 kts | 238° |
| 2026-05-07 18:20 | -23.80786 | -46.96289 | 26568 ft | 401 kts | 238° |
| 2026-05-07 18:20 | -23.82293 | -46.98858 | 26978 ft | 402 kts | 238° |
| 2026-05-07 18:20 | -23.83805 | -47.01435 | 27372 ft | 404 kts | 238° |
| 2026-05-07 18:20 | -23.85320 | -47.04016 | 27763 ft | 405 kts | 238° |
| 2026-05-07 18:21 | -23.86844 | -47.06613 | 28155 ft | 407 kts | 238° |
| 2026-05-07 18:21 | -23.88353 | -47.09186 | 28529 ft | 408 kts | 238° |
| 2026-05-07 18:21 | -23.89887 | -47.11806 | 28901 ft | 410 kts | 238° |
| 2026-05-07 18:21 | -23.91426 | -47.14438 | 29261 ft | 412 kts | 238° |
| 2026-05-07 18:22 | -23.92970 | -47.17082 | 29623 ft | 413 kts | 238° |
| 2026-05-07 18:22 | -23.94016 | -47.18870 | 29846 ft | 415 kts | 238° |
| 2026-05-07 18:22 | -23.96067 | -47.22370 | 29944 ft | 404 kts | 238° |
| 2026-05-07 18:22 | -23.97557 | -47.24916 | 29947 ft | 393 kts | 238° |
| 2026-05-07 18:23 | -23.99020 | -47.27418 | 29944 ft | 389 kts | 238° |
| 2026-05-07 18:23 | -24.01925 | -47.32398 | 29945 ft | 388 kts | 238° |
| 2026-05-07 18:24 | -24.04824 | -47.37374 | 29942 ft | 387 kts | 238° |
| 2026-05-07 18:24 | -24.07720 | -47.42347 | 29940 ft | 388 kts | 238° |
| 2026-05-07 18:25 | -24.10917 | -47.47072 | 29930 ft | 389 kts | 225° |
| 2026-05-07 18:25 | -24.15335 | -47.50529 | 29914 ft | 392 kts | 215° |
| 2026-05-07 18:26 | -24.19943 | -47.53727 | 29911 ft | 392 kts | 215° |
| 2026-05-07 18:26 | -24.24545 | -47.56933 | 29907 ft | 392 kts | 215° |
| 2026-05-07 18:27 | -24.29156 | -47.60138 | 29901 ft | 393 kts | 215° |
| 2026-05-07 18:27 | -24.33767 | -47.63349 | 29898 ft | 393 kts | 216° |
| 2026-05-07 18:28 | -24.38345 | -47.66547 | 29894 ft | 393 kts | 216° |
| 2026-05-07 18:28 | -24.42945 | -47.69783 | 29888 ft | 392 kts | 217° |
| 2026-05-07 18:29 | -24.47345 | -47.73309 | 29888 ft | 391 kts | 220° |
| 2026-05-07 18:29 | -24.51636 | -47.76974 | 29888 ft | 391 kts | 221° |
| 2026-05-07 18:30 | -24.55956 | -47.80610 | 29889 ft | 391 kts | 220° |
| 2026-05-07 18:30 | -24.60310 | -47.84218 | 29776 ft | 396 kts | 220° |
| 2026-05-07 18:30 | -24.62528 | -47.86047 | 29105 ft | 398 kts | 220° |
| 2026-05-07 18:31 | -24.64730 | -47.87856 | 28667 ft | 392 kts | 220° |
| 2026-05-07 18:31 | -24.66902 | -47.89637 | 28242 ft | 387 kts | 220° |
| 2026-05-07 18:31 | -24.69044 | -47.91396 | 27824 ft | 382 kts | 220° |
| 2026-05-07 18:31 | -24.71152 | -47.93137 | 27387 ft | 378 kts | 220° |
| 2026-05-07 18:32 | -24.73243 | -47.94866 | 26967 ft | 374 kts | 220° |
| 2026-05-07 18:32 | -24.75317 | -47.96582 | 26534 ft | 371 kts | 220° |
| 2026-05-07 18:32 | -24.77371 | -47.98286 | 26120 ft | 368 kts | 220° |
| 2026-05-07 18:32 | -24.79407 | -47.99979 | 25685 ft | 366 kts | 220° |
| 2026-05-07 18:33 | -24.81434 | -48.01663 | 25246 ft | 364 kts | 220° |
| 2026-05-07 18:33 | -24.83452 | -48.03338 | 24813 ft | 362 kts | 220° |
| 2026-05-07 18:33 | -24.85462 | -48.05006 | 24346 ft | 361 kts | 220° |
| 2026-05-07 18:33 | -24.87462 | -48.06670 | 23891 ft | 360 kts | 220° |
| 2026-05-07 18:34 | -24.89453 | -48.08324 | 23423 ft | 359 kts | 220° |
| 2026-05-07 18:34 | -24.91442 | -48.09978 | 22911 ft | 357 kts | 220° |
| 2026-05-07 18:34 | -24.93419 | -48.11621 | 22465 ft | 354 kts | 220° |
| 2026-05-07 18:34 | -24.95357 | -48.13232 | 22014 ft | 353 kts | 220° |
| 2026-05-07 18:35 | -24.97311 | -48.14855 | 21579 ft | 351 kts | 220° |
| 2026-05-07 18:35 | -24.99254 | -48.16472 | 21147 ft | 349 kts | 220° |
| 2026-05-07 18:35 | -25.01190 | -48.18084 | 20710 ft | 348 kts | 220° |
| 2026-05-07 18:35 | -25.03121 | -48.19695 | 20276 ft | 348 kts | 220° |
| 2026-05-07 18:36 | -25.05042 | -48.21300 | 19841 ft | 347 kts | 220° |
| 2026-05-07 18:36 | -25.06969 | -48.22909 | 19415 ft | 348 kts | 220° |
| 2026-05-07 18:36 | -25.08900 | -48.24519 | 18981 ft | 348 kts | 220° |
| 2026-05-07 18:36 | -25.10832 | -48.26129 | 18550 ft | 348 kts | 220° |
| 2026-05-07 18:37 | -25.12767 | -48.27745 | 18118 ft | 349 kts | 219° |
| 2026-05-07 18:37 | -25.14707 | -48.29366 | 17649 ft | 350 kts | 219° |
| 2026-05-07 18:37 | -25.16644 | -48.30985 | 17227 ft | 349 kts | 219° |
| 2026-05-07 18:37 | -25.18581 | -48.32602 | 16797 ft | 349 kts | 219° |
| 2026-05-07 18:38 | -25.20502 | -48.34208 | 16537 ft | 346 kts | 219° |
| 2026-05-07 18:38 | -25.22414 | -48.35808 | 16254 ft | 344 kts | 219° |
| 2026-05-07 18:38 | -25.24400 | -48.37273 | 15969 ft | 344 kts | 208° |
| 2026-05-07 18:38 | -25.26618 | -48.38246 | 15715 ft | 342 kts | 195° |
| 2026-05-07 18:39 | -25.28926 | -48.38688 | 15593 ft | 332 kts | 187° |
| 2026-05-07 18:39 | -25.31190 | -48.39004 | 15451 ft | 324 kts | 187° |
| 2026-05-07 18:39 | -25.33418 | -48.39317 | 14984 ft | 329 kts | 187° |
| 2026-05-07 18:39 | -25.35660 | -48.39633 | 14848 ft | 321 kts | 188° |
| 2026-05-07 18:40 | -25.37845 | -48.39944 | 14729 ft | 312 kts | 188° |
| 2026-05-07 18:40 | -25.39972 | -48.40248 | 14605 ft | 304 kts | 188° |
| 2026-05-07 18:40 | -25.42027 | -48.40546 | 14445 ft | 291 kts | 188° |
| 2026-05-07 18:40 | -25.44012 | -48.40832 | 14115 ft | 285 kts | 188° |
| 2026-05-07 18:41 | -25.45968 | -48.41114 | 13703 ft | 282 kts | 187° |
| 2026-05-07 18:41 | -25.47902 | -48.41391 | 13319 ft | 280 kts | 188° |
| 2026-05-07 18:41 | -25.49838 | -48.41671 | 13106 ft | 282 kts | 188° |
| 2026-05-07 18:41 | -25.51784 | -48.41952 | 12888 ft | 281 kts | 188° |
| 2026-05-07 18:42 | -25.53718 | -48.42231 | 12681 ft | 280 kts | 188° |
| 2026-05-07 18:42 | -25.55647 | -48.42507 | 12479 ft | 279 kts | 188° |
| 2026-05-07 18:42 | -25.57574 | -48.42781 | 12262 ft | 279 kts | 188° |
| 2026-05-07 18:42 | -25.59478 | -48.43161 | 12069 ft | 277 kts | 198° |
| 2026-05-07 18:43 | -25.61255 | -48.43962 | 11866 ft | 275 kts | 211° |
| 2026-05-07 18:43 | -25.62828 | -48.45149 | 11567 ft | 272 kts | 224° |
| 2026-05-07 18:43 | -25.64151 | -48.46625 | 11276 ft | 269 kts | 231° |
| 2026-05-07 18:43 | -25.65429 | -48.48137 | 10995 ft | 268 kts | 230° |
| 2026-05-07 18:44 | -25.66709 | -48.49642 | 10709 ft | 268 kts | 230° |
| 2026-05-07 18:44 | -25.67985 | -48.51142 | 10427 ft | 267 kts | 230° |
| 2026-05-07 18:44 | -25.69255 | -48.52633 | 10143 ft | 266 kts | 230° |
| 2026-05-07 18:44 | -25.70523 | -48.54122 | 9860 ft | 265 kts | 231° |
| 2026-05-07 18:45 | -25.71787 | -48.55607 | 9549 ft | 264 kts | 231° |
| 2026-05-07 18:45 | -25.73043 | -48.57082 | 9271 ft | 262 kts | 231° |
| 2026-05-07 18:45 | -25.74273 | -48.58529 | 9005 ft | 260 kts | 231° |
| 2026-05-07 18:45 | -25.75508 | -48.59980 | 8834 ft | 259 kts | 231° |
| 2026-05-07 18:46 | -25.76739 | -48.61425 | 8584 ft | 256 kts | 231° |
| 2026-05-07 18:46 | -25.77958 | -48.62856 | 8314 ft | 255 kts | 231° |
| 2026-05-07 18:46 | -25.79170 | -48.64284 | 8081 ft | 251 kts | 231° |
| 2026-05-07 18:46 | -25.80326 | -48.65638 | 7953 ft | 231 kts | 231° |
| 2026-05-07 18:47 | -25.81503 | -48.66780 | 7774 ft | 221 kts | 220° |
| 2026-05-07 18:47 | -25.82796 | -48.67681 | 7432 ft | 219 kts | 215° |
| 2026-05-07 18:47 | -25.84097 | -48.68528 | 7126 ft | 216 kts | 215° |
| 2026-05-07 18:47 | -25.85391 | -48.69372 | 6883 ft | 216 kts | 216° |
| 2026-05-07 18:48 | -25.86682 | -48.70215 | 6645 ft | 214 kts | 216° |
| 2026-05-07 18:48 | -25.87978 | -48.71033 | 6413 ft | 214 kts | 214° |
| 2026-05-07 18:48 | -25.89278 | -48.71823 | 6180 ft | 212 kts | 214° |
| 2026-05-07 18:48 | -25.90570 | -48.72599 | 5950 ft | 210 kts | 214° |
| 2026-05-07 18:49 | -25.91854 | -48.73368 | 5730 ft | 209 kts | 214° |
| 2026-05-07 18:49 | -25.93129 | -48.74137 | 5506 ft | 209 kts | 214° |
| 2026-05-07 18:49 | -25.94404 | -48.74908 | 5288 ft | 208 kts | 214° |
| 2026-05-07 18:49 | -25.95675 | -48.75679 | 5067 ft | 208 kts | 214° |
| 2026-05-07 18:50 | -25.96942 | -48.76448 | 4845 ft | 207 kts | 214° |
| 2026-05-07 18:50 | -25.98188 | -48.77204 | 4636 ft | 207 kts | 214° |
| 2026-05-07 18:50 | -25.99447 | -48.77968 | 4396 ft | 206 kts | 213° |
| 2026-05-07 18:50 | -26.00705 | -48.78732 | 4181 ft | 206 kts | 213° |
| 2026-05-07 18:51 | -26.01981 | -48.79508 | 3944 ft | 206 kts | 213° |
| 2026-05-07 18:51 | -26.03217 | -48.80259 | 3736 ft | 205 kts | 212° |
| 2026-05-07 18:51 | -26.04456 | -48.81008 | 3538 ft | 200 kts | 212° |
| 2026-05-07 18:51 | -26.05665 | -48.81741 | 3304 ft | 195 kts | 212° |
| 2026-05-07 18:52 | -26.06848 | -48.82449 | 3087 ft | 191 kts | 208° |
| 2026-05-07 18:52 | -26.08088 | -48.82934 | 2883 ft | 187 kts | 197° |
| 2026-05-07 18:52 | -26.09331 | -48.83318 | 2684 ft | 183 kts | 197° |
| 2026-05-07 18:52 | -26.10553 | -48.83699 | 2488 ft | 181 kts | 197° |
| 2026-05-07 18:53 | -26.11762 | -48.84076 | 2298 ft | 180 kts | 197° |
| 2026-05-07 18:53 | -26.12973 | -48.84452 | 2094 ft | 181 kts | 196° |
| 2026-05-07 18:53 | -26.14186 | -48.84831 | 1916 ft | 180 kts | 196° |
| 2026-05-07 18:53 | -26.15391 | -48.85205 | 1721 ft | 179 kts | 194° |
| 2026-05-07 18:54 | -26.16609 | -48.85342 | 1474 ft | 174 kts | 175° |
| 2026-05-07 18:54 | -26.17749 | -48.85097 | 1271 ft | 160 kts | 159° |
| 2026-05-07 18:54 | -26.18710 | -48.84566 | 1052 ft | 151 kts | 144° |
| 2026-05-07 18:54 | -26.19485 | -48.83817 | 864 ft | 146 kts | 130° |
| 2026-05-07 18:55 | -26.20112 | -48.82952 | 663 ft | 141 kts | 127° |
| 2026-05-07 18:55 | -26.20727 | -48.82104 | 459 ft | 140 kts | 128° |
| 2026-05-07 18:55 | -26.21125 | -48.81542 | 327 ft | 138 kts | 127° |
| 2026-05-07 18:55 | -26.21733 | -48.80721 | 141 ft | 136 kts | 129° |
| 2026-05-07 18:56 | -26.22468 | -48.79706 | 23 ft | 97 kts | 129° |
| 2026-05-07 18:56 | -26.22715 | -48.79363 | 25 ft | 34 kts | 128° |
| 2026-05-07 18:56 | -26.22811 | -48.79228 | 25 ft | 32 kts | 129° |
| 2026-05-07 18:56 | -26.22899 | -48.79116 | 27 ft | 6 kts | 52° |
| 2026-05-07 18:57 | -26.22868 | -48.79153 | 26 ft | 14 kts | 306° |
| 2026-05-07 18:57 | -26.22805 | -48.79241 | 26 ft | 14 kts | 308° |
| 2026-05-07 18:57 | -26.22745 | -48.79322 | 25 ft | 13 kts | 309° |
| 2026-05-07 18:57 | -26.22674 | -48.79420 | 24 ft | 12 kts | 309° |
| 2026-05-07 18:58 | -26.22639 | -48.79468 | 23 ft | 12 kts | 308° |
| 2026-05-07 18:58 | -26.22569 | -48.79567 | 23 ft | 20 kts | 308° |
| 2026-05-07 18:58 | -26.22489 | -48.79679 | 24 ft | 18 kts | 309° |
| 2026-05-07 18:58 | -26.22413 | -48.79783 | 23 ft | 16 kts | 309° |
| 2026-05-07 18:59 | -26.22347 | -48.79873 | 26 ft | 14 kts | 309° |
| 2026-05-07 18:59 | -26.22291 | -48.79952 | 26 ft | 12 kts | 303° |
| 2026-05-07 18:59 | -26.22330 | -48.80021 | 22 ft | 12 kts | 220° |
| 2026-05-07 18:59 | -26.22345 | -48.80080 | 21 ft | 0 kts | 284° |
| 2026-05-07 19:00 | -26.22341 | -48.80101 | 21 ft | 8 kts | 284° |
| 2026-05-07 19:00 | -26.22318 | -48.80172 | 23 ft | 9 kts | 305° |
| 2026-05-07 19:00 | -26.22280 | -48.80227 | 21 ft | 8 kts | 300° |
| 2026-05-07 19:00 | -26.22301 | -48.80276 | 22 ft | 7 kts | 219° |
| 2026-05-07 19:01 | -26.22336 | -48.80308 | 21 ft | 6 kts | 214° |
| 2026-05-07 19:01 | -26.22363 | -48.80293 | 21 ft | 4 kts | 127° |
| 2026-05-07 19:01 | -26.22376 | -48.80274 | 22 ft | 2 kts | 127° |
| 2026-05-07 19:01 | -26.22380 | -48.80268 | 21 ft | 0 kts | 128° |